Time;durP1;ratioP1;P1;durP2;ratioP2;P2;SDS_P1;SDS_P2;PMS_P1;PMS_P2;Temp;Humidity;BMP_temperature;BMP_pressure;BME280_temperature;BME280_humidity;BME280_pressure;Samples;Min_cycle;Max_cycle;Signal;HPM_P1;HPM_P2
2024/03/14 02:31:43;;;;;;;6.47;2.60;;;13.80;68.40;;;;;;5034848;23;20103;-78
2024/03/14 02:34:28;;;;;;;5.55;2.53;;;13.70;68.20;;;;;;5027343;28;20047;-77
2024/03/14 02:37:13;;;;;;;6.18;2.30;;;13.70;68.30;;;;;;5030866;28;20051;-77
2024/03/14 02:39:58;;;;;;;10.98;2.90;;;13.70;68.50;;;;;;5032869;28;20044;-78
2024/03/14 02:42:42;;;;;;;6.03;2.72;;;13.70;68.60;;;;;;5001695;28;20124;-77
2024/03/14 02:45:26;;;;;;;6.75;2.55;;;13.70;68.60;;;;;;5018713;28;20079;-77
2024/03/14 02:48:11;;;;;;;7.22;3.50;;;13.80;68.80;;;;;;5025727;28;20059;-77
2024/03/14 02:50:56;;;;;;;7.95;2.72;;;13.70;68.70;;;;;;5035237;28;20072;-78
2024/03/14 02:53:40;;;;;;;6.60;2.50;;;13.70;68.80;;;;;;5014979;28;20075;-77
2024/03/14 02:56:25;;;;;;;7.30;2.65;;;13.70;68.80;;;;;;5020996;28;20073;-77
2024/03/14 02:59:10;;;;;;;7.18;2.42;;;13.70;68.80;;;;;;5053326;28;20037;-76
2024/03/14 03:01:55;;;;;;;6.57;2.33;;;13.70;68.90;;;;;;5023841;28;20126;-76
2024/03/14 03:04:39;;;;;;;9.35;2.55;;;13.70;69.00;;;;;;5052751;28;20056;-77
2024/03/14 03:07:26;;;;;;;7.07;2.95;;;13.70;69.00;;;;;;5052277;28;20072;-77
2024/03/14 03:10:11;;;;;;;8.18;2.58;;;13.70;69.10;;;;;;5046135;28;20175;-77
2024/03/14 03:12:56;;;;;;;7.75;2.72;;;13.70;69.10;;;;;;5034824;28;20044;-77
2024/03/14 03:15:40;;;;;;;8.13;3.20;;;13.70;69.10;;;;;;5016969;28;20049;-76
2024/03/14 03:18:25;;;;;;;5.57;3.13;;;13.70;69.20;;;;;;5003758;28;20068;-78
2024/03/14 03:21:10;;;;;;;6.03;2.88;;;13.70;69.20;;;;;;5032738;28;20075;-77
2024/03/14 03:23:54;;;;;;;9.30;3.55;;;13.70;69.20;;;;;;5033210;28;20439;-78
2024/03/14 03:26:42;;;;;;;6.60;2.67;;;13.70;69.30;;;;;;5033693;28;20107;-77
2024/03/14 03:29:27;;;;;;;8.95;2.38;;;13.70;69.30;;;;;;5032444;28;20099;-77
2024/03/14 03:32:11;;;;;;;5.07;2.50;;;13.70;69.40;;;;;;5032176;28;20064;-78
2024/03/14 03:34:57;;;;;;;6.35;2.38;;;13.60;69.20;;;;;;5032390;28;20031;-78
2024/03/14 03:37:42;;;;;;;6.32;3.35;;;13.60;69.20;;;;;;5035265;28;20099;-78
2024/03/14 03:40:34;;;;;;;5.35;2.53;;;13.70;69.50;;;;;;5035788;28;20044;-77
2024/03/14 03:43:18;;;;;;;4.25;3.20;;;13.60;69.30;;;;;;5036467;28;20040;-78
2024/03/14 03:46:06;;;;;;;7.15;2.65;;;13.60;69.30;;;;;;5022145;28;20036;-78
2024/03/14 03:48:51;;;;;;;5.82;2.40;;;13.60;69.30;;;;;;5017378;28;20555;-78
2024/03/14 03:51:35;;;;;;;7.10;2.50;;;13.60;69.40;;;;;;5036668;28;20065;-76
2024/03/14 03:54:20;;;;;;;9.05;3.92;;;13.60;69.40;;;;;;5036852;28;20064;-78
2024/03/14 03:57:05;;;;;;;7.35;3.53;;;13.60;69.50;;;;;;5023764;28;20040;-77
2024/03/14 03:59:50;;;;;;;7.55;2.60;;;13.60;69.50;;;;;;5020978;28;20044;-78
2024/03/14 04:02:34;;;;;;;6.47;2.70;;;13.60;69.50;;;;;;5032367;28;20412;-79
2024/03/14 04:05:20;;;;;;;11.23;3.00;;;13.60;69.50;;;;;;5032395;28;20047;-78
2024/03/14 04:08:05;;;;;;;5.93;2.80;;;13.50;69.90;;;;;;5031611;28;20033;-77
2024/03/14 04:10:50;;;;;;;7.68;2.60;;;13.60;69.50;;;;;;5016755;28;20335;-78
2024/03/14 04:13:35;;;;;;;6.95;2.75;;;13.50;69.40;;;;;;5015673;28;20060;-78
2024/03/14 04:16:21;;;;;;;5.28;2.80;;;13.50;69.40;;;;;;5029818;28;20088;-78
2024/03/14 04:19:06;;;;;;;5.53;2.47;;;13.50;69.40;;;;;;5029855;28;20099;-78
2024/03/14 04:21:50;;;;;;;6.63;2.30;;;13.50;69.40;;;;;;5029795;28;20099;-77
2024/03/14 04:24:35;;;;;;;5.15;2.60;;;13.50;69.50;;;;;;5014821;28;20055;-77
2024/03/14 04:27:21;;;;;;;8.27;3.00;;;13.50;69.50;;;;;;5030034;28;20044;-77
2024/03/14 04:30:06;;;;;;;6.03;2.92;;;13.50;69.50;;;;;;5000134;28;20100;-77
2024/03/14 04:32:51;;;;;;;8.80;2.80;;;13.50;69.50;;;;;;5013914;28;20052;-78
2024/03/14 04:35:36;;;;;;;5.50;2.63;;;13.50;69.60;;;;;;5012623;28;20082;-77
2024/03/14 04:38:23;;;;;;;8.43;2.70;;;13.50;69.60;;;;;;5028886;28;20515;-78
2024/03/14 04:41:14;;;;;;;7.05;2.92;;;13.50;69.60;;;;;;5029023;28;20408;-77
2024/03/14 04:43:58;;;;;;;5.05;2.42;;;13.50;69.70;;;;;;5028878;28;20043;-77
2024/03/14 04:46:43;;;;;;;7.78;2.08;;;13.50;69.70;;;;;;5028774;28;20040;-77
2024/03/14 04:49:28;;;;;;;4.05;2.38;;;13.50;69.70;;;;;;5028867;28;20111;-76
2024/03/14 04:52:14;;;;;;;5.25;2.40;;;13.50;69.70;;;;;;5028847;28;20107;-77
2024/03/14 04:54:58;;;;;;;6.78;2.83;;;13.50;69.70;;;;;;5028352;28;20114;-77
2024/03/14 04:57:46;;;;;;;6.28;2.20;;;13.50;69.70;;;;;;5028976;28;20495;-76
2024/03/14 05:00:33;;;;;;;6.97;2.75;;;13.50;69.70;;;;;;5028731;28;20041;-77
2024/03/14 05:03:17;;;;;;;4.97;2.50;;;13.50;69.80;;;;;;5013810;28;20091;-78
2024/03/14 05:06:03;;;;;;;4.35;1.90;;;13.50;69.80;;;;;;5028571;28;20115;-77
2024/03/14 05:08:47;;;;;;;8.13;2.60;;;13.50;69.80;;;;;;5023520;28;20136;-76
2024/03/14 05:11:32;;;;;;;5.82;1.80;;;13.40;69.60;;;;;;5014045;28;20196;-77
2024/03/14 05:14:17;;;;;;;6.60;3.33;;;13.40;70.10;;;;;;5029517;28;20036;-77
2024/03/14 05:17:01;;;;;;;4.05;2.13;;;13.50;69.80;;;;;;5014395;28;20032;-79
2024/03/14 05:19:46;;;;;;;6.57;2.25;;;13.40;69.60;;;;;;5029940;28;20044;-77
2024/03/14 05:22:33;;;;;;;3.78;2.50;;;13.40;69.60;;;;;;5014955;28;20068;-78
2024/03/14 05:25:18;;;;;;;6.50;2.67;;;13.40;69.70;;;;;;5029748;28;20552;-77
2024/03/14 05:28:03;;;;;;;6.25;2.42;;;13.40;69.70;;;;;;5029600;28;20159;-78
2024/03/14 05:30:47;;;;;;;5.03;2.13;;;13.40;69.80;;;;;;5028102;28;20113;-79
2024/03/14 05:33:32;;;;;;;7.03;2.70;;;13.40;69.80;;;;;;5029414;28;20041;-78
2024/03/14 05:36:16;;;;;;;4.80;2.42;;;13.40;69.80;;;;;;5029351;28;20550;-77
2024/03/14 05:39:01;;;;;;;4.25;2.47;;;13.40;69.90;;;;;;5029458;28;20044;-77
2024/03/14 05:41:45;;;;;;;5.70;2.60;;;13.40;69.90;;;;;;5015269;28;20083;-78
2024/03/14 05:44:30;;;;;;;4.35;2.47;;;13.40;69.90;;;;;;5033384;28;20056;-79
2024/03/14 05:47:16;;;;;;;5.20;2.40;;;13.40;70.00;;;;;;5030590;28;20041;-78
2024/03/14 05:50:00;;;;;;;4.55;2.42;;;13.40;70.00;;;;;;5029438;28;20045;-77
2024/03/14 05:52:47;;;;;;;4.55;2.53;;;13.40;70.00;;;;;;5028997;28;20150;-78
2024/03/14 05:55:31;;;;;;;7.75;2.63;;;13.40;70.00;;;;;;5028397;28;20165;-80
2024/03/14 05:58:16;;;;;;;6.57;3.10;;;13.40;70.00;;;;;;5029165;28;20052;-78
2024/03/14 06:01:03;;;;;;;5.78;2.53;;;13.40;70.10;;;;;;5013322;28;20067;-76
2024/03/14 06:03:49;;;;;;;6.35;3.80;;;13.40;70.10;;;;;;5022950;28;20128;-78
2024/03/14 06:06:34;;;;;;;4.28;2.78;;;13.30;69.90;;;;;;5046678;28;20044;-78
2024/03/14 06:09:31;;;;;;;4.97;2.60;;;13.30;70.00;;;;;;5014759;28;20104;-77
2024/03/14 06:12:16;;;;;;;3.30;2.25;;;13.40;70.20;;;;;;5027247;28;20636;-77
2024/03/14 06:15:02;;;;;;;8.02;2.83;;;13.30;70.00;;;;;;5010332;28;20040;-77
2024/03/14 06:17:50;;;;;;;4.70;2.50;;;13.30;70.00;;;;;;5020446;28;20523;-78
2024/03/14 06:20:35;;;;;;;4.88;3.03;;;13.40;70.20;;;;;;5011185;28;20389;-78
2024/03/14 06:23:20;;;;;;;8.57;2.70;;;13.40;70.30;;;;;;5026369;28;20040;-77
2024/03/14 06:26:04;;;;;;;5.57;2.60;;;13.30;70.10;;;;;;5028152;28;20048;-76
2024/03/14 06:28:49;;;;;;;4.82;2.50;;;13.40;70.30;;;;;;5028395;28;20538;-77
2024/03/14 06:31:34;;;;;;;6.70;3.10;;;13.40;70.30;;;;;;5027469;28;20129;-77
2024/03/14 06:34:19;;;;;;;3.60;2.55;;;13.40;70.30;;;;;;5012762;28;20558;-77
2024/03/14 06:37:04;;;;;;;5.95;2.20;;;13.40;70.40;;;;;;5028310;28;20545;-78
2024/03/14 06:39:48;;;;;;;4.63;2.15;;;13.40;70.40;;;;;;5027843;28;20395;-76
2024/03/14 06:42:33;;;;;;;6.47;2.78;;;13.40;70.40;;;;;;5026710;28;20052;-77
2024/03/14 06:45:19;;;;;;;4.47;2.75;;;13.40;70.40;;;;;;5026086;28;20060;-78
2024/03/14 06:48:04;;;;;;;6.53;2.80;;;13.30;70.20;;;;;;5026970;28;20523;-77
2024/03/14 06:50:49;;;;;;;6.75;2.25;;;13.40;70.40;;;;;;5027194;28;20206;-77
2024/03/14 06:53:33;;;;;;;6.38;2.25;;;13.40;70.40;;;;;;5011418;28;20136;-80
2024/03/14 06:56:18;;;;;;;3.13;2.40;;;13.40;70.40;;;;;;5012145;28;20040;-77
2024/03/14 06:59:05;;;;;;;6.88;2.58;;;13.40;70.40;;;;;;5026886;28;20083;-78
2024/03/14 07:01:52;;;;;;;7.15;3.00;;;13.40;71.00;;;;;;5025808;28;20125;-80
2024/03/14 07:04:37;;;;;;;5.03;2.22;;;13.40;70.50;;;;;;5011861;28;20439;-79
2024/03/14 07:07:21;;;;;;;6.40;2.42;;;13.50;70.80;;;;;;5026573;28;20087;-79
2024/03/14 07:10:08;;;;;;;5.53;3.28;;;13.50;70.90;;;;;;5027039;28;20099;-80
2024/03/14 07:12:57;;;;;;;4.05;2.97;;;13.50;70.90;;;;;;5005828;28;20534;-80
2024/03/14 07:15:41;;;;;;;5.00;2.35;;;13.60;71.10;;;;;;4992137;28;20229;-78
2024/03/14 07:18:27;;;;;;;4.32;2.45;;;13.60;71.10;;;;;;5000748;28;20064;-79
2024/03/14 07:21:12;;;;;;;6.78;2.70;;;13.60;71.20;;;;;;5011626;28;20088;-79
2024/03/14 07:23:57;;;;;;;6.68;2.40;;;13.70;71.60;;;;;;5026921;28;20076;-79
2024/03/14 07:26:43;;;;;;;6.13;2.28;;;13.70;71.70;;;;;;5026483;28;20037;-79
2024/03/14 07:29:28;;;;;;;5.75;3.15;;;13.70;71.70;;;;;;5011162;28;20052;-80
2024/03/14 07:32:14;;;;;;;7.30;3.30;;;13.80;71.80;;;;;;5028496;28;20095;-80
2024/03/14 07:34:58;;;;;;;8.48;3.92;;;13.80;71.90;;;;;;5011606;28;20040;-79
2024/03/14 07:37:45;;;;;;;5.40;3.63;;;13.80;71.90;;;;;;5005730;28;20132;-80
2024/03/14 07:40:34;;;;;;;7.28;4.22;;;13.80;71.90;;;;;;4991008;28;20416;-79
2024/03/14 07:43:20;;;;;;;9.88;4.47;;;13.90;72.10;;;;;;5026344;28;20040;-81
2024/03/14 07:46:06;;;;;;;7.38;4.30;;;14.00;72.30;;;;;;5027207;28;20044;-82
2024/03/14 07:48:51;;;;;;;9.35;4.63;;;14.00;72.30;;;;;;5027479;28;20120;-81
2024/03/14 07:51:36;;;;;;;6.93;4.10;;;14.10;72.40;;;;;;5012416;28;20145;-82
2024/03/14 07:54:22;;;;;;;9.45;4.03;;;14.10;72.40;;;;;;5027060;28;20100;-81
2024/03/14 07:57:07;;;;;;;9.02;4.63;;;14.20;72.50;;;;;;4998068;28;20506;-79
2024/03/14 07:59:51;;;;;;;10.48;3.30;;;14.20;72.40;;;;;;4998199;28;20056;-79
2024/03/14 08:02:39;;;;;;;5.53;3.03;;;14.30;72.60;;;;;;5026191;28;20121;-80
2024/03/14 08:05:25;;;;;;;6.03;3.30;;;14.30;72.50;;;;;;5011127;28;20577;-80
2024/03/14 08:08:09;;;;;;;7.57;5.35;;;14.40;72.60;;;;;;5026446;28;20121;-80
2024/03/14 08:10:54;;;;;;;9.45;4.65;;;14.50;72.70;;;;;;5011819;28;20048;-80
2024/03/14 08:13:39;;;;;;;7.80;3.83;;;14.60;72.80;;;;;;5015808;28;20044;-82
2024/03/14 08:16:23;;;;;;;5.90;3.08;;;14.60;72.70;;;;;;5017429;28;20079;-79
2024/03/14 08:19:09;;;;;;;6.28;3.35;;;14.70;72.70;;;;;;5027529;28;20044;-80
2024/03/14 08:21:56;;;;;;;5.38;3.20;;;14.80;72.70;;;;;;5011737;28;20528;-80
2024/03/14 08:24:46;;;;;;;11.32;4.30;;;14.80;72.60;;;;;;5026604;28;20419;-80
2024/03/14 08:27:30;;;;;;;7.65;3.25;;;14.90;72.60;;;;;;5025676;28;20457;-81
2024/03/14 08:30:15;;;;;;;7.13;3.35;;;15.00;72.60;;;;;;5006468;28;20057;-80
2024/03/14 08:33:03;;;;;;;6.78;2.58;;;15.10;73.10;;;;;;5000262;28;20065;-80
2024/03/14 08:35:50;;;;;;;6.80;2.95;;;15.10;72.50;;;;;;5026118;28;20048;-80
2024/03/14 08:38:34;;;;;;;4.65;2.45;;;15.20;72.50;;;;;;5010578;28;20608;-80
2024/03/14 08:41:19;;;;;;;6.00;3.03;;;15.20;72.40;;;;;;5026052;28;20052;-80
2024/03/14 08:44:05;;;;;;;6.80;3.17;;;15.30;72.40;;;;;;4997037;28;20048;-81
2024/03/14 08:46:50;;;;;;;10.10;4.00;;;15.40;72.50;;;;;;5026147;28;20037;-80
2024/03/14 08:49:35;;;;;;;4.22;3.15;;;15.40;72.30;;;;;;5010729;28;20041;-81
2024/03/14 08:52:23;;;;;;;11.95;3.53;;;15.50;72.40;;;;;;4996942;28;20039;-81
2024/03/14 08:55:29;;;;;;;7.15;3.03;;;15.50;72.20;;;;;;4996559;28;20128;-80
2024/03/14 08:58:14;;;;;;;8.05;3.85;;;15.60;72.30;;;;;;4997058;28;20515;-80
2024/03/14 09:00:59;;;;;;;7.13;2.80;;;15.70;72.20;;;;;;5010065;28;20047;-82
2024/03/14 09:03:45;;;;;;;3.47;2.40;;;15.70;72.20;;;;;;4990317;28;20492;-80
2024/03/14 09:06:31;;;;;;;8.70;2.72;;;15.70;72.00;;;;;;5025774;28;20064;-80
2024/03/14 09:09:34;;;;;;;6.82;2.85;;;15.70;72.00;;;;;;5025640;28;20103;-80
2024/03/14 09:12:24;;;;;;;6.68;2.60;;;15.70;71.90;;;;;;5025652;28;20041;-78
2024/03/14 09:15:09;;;;;;;7.53;2.58;;;15.70;71.90;;;;;;5025858;28;20128;-78
2024/03/14 09:17:55;;;;;;;5.78;3.10;;;15.70;71.80;;;;;;5031918;28;20039;-81
2024/03/14 09:20:42;;;;;;;5.28;2.53;;;15.70;71.70;;;;;;5031254;28;20515;-80
2024/03/14 09:23:28;;;;;;;5.38;3.08;;;15.80;71.90;;;;;;5029579;28;20287;-80
2024/03/14 09:26:13;;;;;;;4.18;2.67;;;15.80;71.90;;;;;;5014939;28;20464;-80
2024/03/14 09:28:58;;;;;;;5.00;2.45;;;15.90;72.00;;;;;;5014372;28;20051;-82
2024/03/14 09:31:45;;;;;;;5.38;2.97;;;15.90;71.90;;;;;;5023746;28;20110;-79
2024/03/14 09:34:30;;;;;;;4.53;2.75;;;16.00;72.00;;;;;;5033660;28;20038;-80
2024/03/14 09:37:16;;;;;;;4.43;2.92;;;16.10;71.90;;;;;;5031138;28;20048;-79
2024/03/14 09:40:01;;;;;;;6.95;3.95;;;16.20;71.90;;;;;;5034582;28;20064;-80
2024/03/14 09:42:56;;;;;;;4.82;3.47;;;16.30;71.90;;;;;;5031524;28;20064;-80
2024/03/14 09:45:42;;;;;;;7.90;2.83;;;16.30;71.70;;;;;;5015998;28;20047;-79
2024/03/14 09:48:31;;;;;;;6.38;2.67;;;16.40;71.60;;;;;;5031192;28;20088;-79
2024/03/14 09:51:17;;;;;;;4.63;2.40;;;16.50;71.60;;;;;;5015376;28;20555;-78
2024/03/14 09:54:02;;;;;;;5.45;2.50;;;16.60;71.50;;;;;;5024108;28;20052;-77
2024/03/14 09:56:46;;;;;;;3.65;1.98;;;16.70;71.50;;;;;;5049039;28;20240;-79
2024/03/14 09:59:31;;;;;;;3.60;1.88;;;16.70;71.40;;;;;;5023303;28;20037;-79
2024/03/14 10:02:18;;;;;;;3.65;2.17;;;16.70;71.20;;;;;;5034839;28;20032;-78
2024/03/14 10:05:03;;;;;;;3.38;2.22;;;16.70;71.10;;;;;;5043712;28;20048;-79
2024/03/14 10:07:49;;;;;;;3.25;2.03;;;16.70;71.00;;;;;;5018913;28;20036;-78
2024/03/14 10:10:35;;;;;;;3.33;2.30;;;16.70;71.00;;;;;;5015355;28;20576;-78
2024/03/14 10:13:28;;;;;;;3.63;2.30;;;16.60;70.80;;;;;;5029701;28;20102;-78
2024/03/14 10:16:14;;;;;;;4.65;2.47;;;16.60;70.70;;;;;;5014693;28;20040;-81
2024/03/14 10:18:59;;;;;;;2.78;2.45;;;16.60;70.80;;;;;;5029058;28;20407;-78
2024/03/14 10:21:45;;;;;;;4.30;2.70;;;16.60;70.70;;;;;;5029775;28;20428;-79
2024/03/14 10:24:30;;;;;;;3.47;2.33;;;16.60;70.70;;;;;;5029429;28;20565;-80
2024/03/14 10:27:16;;;;;;;5.80;3.45;;;16.50;70.40;;;;;;5028657;28;20339;-79
2024/03/14 10:30:02;;;;;;;5.47;3.55;;;16.50;70.40;;;;;;5028752;28;20048;-78
2024/03/14 10:32:49;;;;;;;4.05;2.45;;;16.50;70.30;;;;;;5013725;28;20463;-80
2024/03/14 10:35:33;;;;;;;4.93;2.25;;;16.50;70.30;;;;;;5027938;28;20052;-79
2024/03/14 10:38:25;;;;;;;3.22;2.40;;;16.50;70.30;;;;;;5027970;28;20195;-80
2024/03/14 10:41:14;;;;;;;4.63;2.22;;;16.50;70.10;;;;;;5013720;28;20084;-79
2024/03/14 10:44:01;;;;;;;4.07;2.15;;;16.60;70.20;;;;;;5028895;28;20047;-77
2024/03/14 10:46:50;;;;;;;2.72;2.10;;;16.60;70.10;;;;;;5028689;28;20133;-78
2024/03/14 10:49:37;;;;;;;4.32;2.00;;;16.60;70.00;;;;;;5013327;28;20075;-79
2024/03/14 10:52:22;;;;;;;4.50;2.35;;;16.60;69.90;;;;;;5027700;28;20233;-79
2024/03/14 10:55:10;;;;;;;4.15;1.98;;;16.60;69.80;;;;;;5012878;28;20555;-79
2024/03/14 10:57:57;;;;;;;3.13;1.98;;;16.70;70.00;;;;;;5012353;28;20039;-78
2024/03/14 11:00:44;;;;;;;3.28;1.98;;;16.70;69.80;;;;;;5021236;28;20492;-78
2024/03/14 11:03:29;;;;;;;5.07;2.40;;;16.70;69.70;;;;;;4998757;28;20064;-78
2024/03/14 11:06:20;;;;;;;3.13;1.90;;;16.70;69.70;;;;;;5012594;28;20087;-77
2024/03/14 11:09:10;;;;;;;3.88;1.85;;;16.70;69.60;;;;;;5027931;28;20040;-78
2024/03/14 11:11:57;;;;;;;4.47;2.35;;;16.60;69.40;;;;;;5012391;28;20040;-78
2024/03/14 11:14:50;;;;;;;3.78;1.73;;;16.70;69.60;;;;;;5012847;28;20507;-80
2024/03/14 11:17:36;;;;;;;3.22;2.38;;;16.60;69.40;;;;;;5027621;28;20068;-78
2024/03/14 11:20:25;;;;;;;4.15;1.98;;;16.70;69.50;;;;;;5007141;28;20476;-80
2024/03/14 11:23:15;;;;;;;2.85;2.03;;;16.80;69.60;;;;;;5016774;28;20117;-78
2024/03/14 11:26:07;;;;;;;4.07;1.90;;;16.90;69.60;;;;;;5027608;28;20519;-77
2024/03/14 11:29:02;;;;;;;4.00;2.00;;;16.90;69.30;;;;;;5027032;28;20431;-79
2024/03/14 11:32:11;;;;;;;4.45;1.95;;;17.00;69.40;;;;;;5027096;28;20060;-78
2024/03/14 11:34:58;;;;;;;4.60;2.40;;;17.00;69.20;;;;;;5027401;28;20080;-79
2024/03/14 11:38:04;;;;;;;2.40;1.42;;;17.00;69.20;;;;;;5027038;28;20040;-79
2024/03/14 11:40:51;;;;;;;4.55;2.15;;;17.00;69.10;;;;;;5026074;28;20175;-77
2024/03/14 11:43:36;;;;;;;4.57;1.75;;;17.00;69.10;;;;;;5026822;28;20052;-79
2024/03/14 11:46:23;;;;;;;5.70;2.00;;;17.00;69.10;;;;;;5027131;28;20083;-77
2024/03/14 11:49:20;;;;;;;2.63;1.58;;;16.90;68.90;;;;;;5025619;28;20068;-78
2024/03/14 11:52:07;;;;;;;3.67;1.52;;;16.90;68.90;;;;;;5014563;28;20168;-77
2024/03/14 11:54:59;;;;;;;4.32;2.20;;;16.90;68.90;;;;;;5022916;28;20040;-77
2024/03/14 11:57:49;;;;;;;4.03;1.67;;;16.90;68.90;;;;;;5033729;28;20109;-80
2024/03/14 12:00:34;;;;;;;2.78;1.52;;;16.90;68.90;;;;;;5012577;28;20092;-82
2024/03/14 12:03:22;;;;;;;3.42;1.60;;;16.90;68.90;;;;;;5011107;28;20084;-78
2024/03/14 12:06:06;;;;;;;3.95;2.05;;;17.00;69.00;;;;;;5026275;28;20072;-77
2024/03/14 12:08:52;;;;;;;3.90;1.85;;;17.10;69.00;;;;;;5011169;28;20040;-76
2024/03/14 12:11:36;;;;;;;2.47;1.60;;;17.20;69.00;;;;;;5012138;28;20505;-78
2024/03/14 12:14:21;;;;;;;2.88;1.60;;;17.30;69.00;;;;;;5006310;28;20040;-78
2024/03/14 12:17:15;;;;;;;4.70;2.90;;;17.40;68.90;;;;;;5006875;28;20103;-77
2024/03/14 12:20:04;;;;;;;3.83;1.90;;;17.40;68.70;;;;;;5008580;28;20041;-77
2024/03/14 12:22:51;;;;;;;4.15;1.73;;;17.50;68.80;;;;;;5010895;28;20044;-77
2024/03/14 12:25:37;;;;;;;3.60;1.60;;;17.50;68.70;;;;;;5011195;28;20072;-78
2024/03/14 12:28:23;;;;;;;4.70;2.00;;;17.50;68.60;;;;;;5025732;28;20396;-77
2024/03/14 12:31:12;;;;;;;2.33;1.50;;;17.50;68.50;;;;;;5025051;28;20096;-77
2024/03/14 12:33:59;;;;;;;6.43;2.15;;;17.50;68.50;;;;;;5025696;28;20452;-79
2024/03/14 12:36:47;;;;;;;4.30;1.80;;;17.50;68.50;;;;;;5025760;28;20420;-80
2024/03/14 12:39:31;;;;;;;4.50;2.13;;;17.40;68.30;;;;;;5024760;28;20114;-78
2024/03/14 12:42:16;;;;;;;2.58;1.63;;;17.40;68.40;;;;;;5010838;28;20159;-78
2024/03/14 12:45:03;;;;;;;2.95;1.70;;;17.40;68.40;;;;;;5025435;28;20099;-78
2024/03/14 12:47:48;;;;;;;4.38;2.05;;;17.40;68.30;;;;;;5010432;28;20044;-78
2024/03/14 12:50:32;;;;;;;2.90;1.50;;;17.50;68.40;;;;;;4997478;28;20048;-78
2024/03/14 12:53:19;;;;;;;3.45;1.40;;;17.50;68.40;;;;;;5011693;28;20040;-78
2024/03/14 12:56:04;;;;;;;5.55;2.10;;;17.50;68.30;;;;;;5010869;28;20119;-79
2024/03/14 12:58:51;;;;;;;3.08;1.60;;;17.60;68.40;;;;;;5025316;28;20052;-77
2024/03/14 13:01:37;;;;;;;2.88;2.08;;;17.60;68.30;;;;;;5025812;28;20103;-79
2024/03/14 13:04:22;;;;;;;4.50;1.83;;;17.60;68.20;;;;;;5025351;28;20146;-77
2024/03/14 13:07:20;;;;;;;3.97;1.70;;;17.60;68.20;;;;;;5025543;28;20527;-78
2024/03/14 13:10:12;;;;;;;3.22;1.70;;;17.60;68.10;;;;;;5024749;28;20044;-77
2024/03/14 13:13:00;;;;;;;4.85;1.80;;;17.60;68.10;;;;;;5010164;28;20037;-78
2024/03/14 13:15:50;;;;;;;3.17;1.63;;;17.60;68.20;;;;;;4996258;28;20048;-78
2024/03/14 13:18:34;;;;;;;2.58;1.60;;;17.50;68.00;;;;;;5024704;28;20041;-79
2024/03/14 13:21:24;;;;;;;5.35;2.05;;;17.50;68.10;;;;;;5010117;28;20033;-78
2024/03/14 13:24:13;;;;;;;4.13;1.77;;;17.50;68.10;;;;;;5024372;28;20059;-77
2024/03/14 13:26:58;;;;;;;3.97;2.00;;;17.50;68.10;;;;;;5025291;28;20535;-77
2024/03/14 13:29:42;;;;;;;3.65;2.33;;;17.50;68.10;;;;;;5024813;28;20033;-78
2024/03/14 13:32:28;;;;;;;4.07;1.52;;;17.50;68.10;;;;;;5024371;28;20068;-76
2024/03/14 13:35:13;;;;;;;4.07;1.75;;;17.50;68.00;;;;;;5024334;28;20028;-78
2024/03/14 13:37:58;;;;;;;6.35;2.30;;;17.50;68.00;;;;;;5024588;28;20045;-78
2024/03/14 13:40:45;;;;;;;4.30;1.77;;;17.50;68.00;;;;;;5010164;28;20458;-78
2024/03/14 13:43:31;;;;;;;2.40;1.60;;;17.50;68.00;;;;;;5024923;28;20044;-79
2024/03/14 13:46:19;;;;;;;5.47;2.05;;;17.50;68.20;;;;;;5025013;28;20048;-79
2024/03/14 13:49:09;;;;;;;5.22;2.25;;;17.50;67.90;;;;;;5025013;28;20095;-79
2024/03/14 13:51:54;;;;;;;3.00;1.80;;;17.60;68.00;;;;;;5024558;28;20041;-79
2024/03/14 13:54:39;;;;;;;4.13;2.17;;;17.60;67.90;;;;;;5010464;28;20350;-79
2024/03/14 13:57:23;;;;;;;3.50;1.90;;;17.70;68.00;;;;;;5009821;28;20439;-80
2024/03/14 14:00:11;;;;;;;2.65;1.63;;;17.70;68.00;;;;;;5009729;28;20248;-79
2024/03/14 14:03:00;;;;;;;2.85;2.00;;;17.80;68.10;;;;;;5011568;28;20041;-80
2024/03/14 14:05:46;;;;;;;4.13;1.60;;;17.90;68.20;;;;;;5014064;28;20051;-81
2024/03/14 14:08:31;;;;;;;3.13;1.60;;;18.00;68.20;;;;;;5028658;28;20044;-80
2024/03/14 14:11:17;;;;;;;2.25;1.58;;;18.10;68.20;;;;;;5012878;28;20084;-78
2024/03/14 14:14:02;;;;;;;4.90;2.90;;;18.20;68.20;;;;;;5011462;28;20048;-80
2024/03/14 14:16:48;;;;;;;4.65;2.03;;;18.20;68.00;;;;;;5027707;28;20204;-78
2024/03/14 14:19:32;;;;;;;5.82;2.03;;;18.30;68.10;;;;;;5023470;28;20345;-78
2024/03/14 14:22:18;;;;;;;2.55;1.40;;;18.30;68.00;;;;;;5028036;28;20048;-79
2024/03/14 14:25:03;;;;;;;4.72;1.60;;;18.30;68.00;;;;;;5028115;28;20503;-77
2024/03/14 14:27:48;;;;;;;3.72;1.50;;;18.20;67.80;;;;;;5035334;28;20802;-79
2024/03/14 14:30:32;;;;;;;3.42;1.77;;;18.20;67.90;;;;;;5022379;28;20060;-78
2024/03/14 14:33:17;;;;;;;4.60;1.70;;;18.30;68.10;;;;;;5032439;28;20067;-79
2024/03/14 14:36:02;;;;;;;2.55;1.40;;;18.20;67.90;;;;;;5030334;28;20083;-79
2024/03/14 14:38:48;;;;;;;6.60;1.67;;;18.20;68.00;;;;;;5044821;28;20041;-78
2024/03/14 14:41:32;;;;;;;4.93;1.50;;;18.20;68.10;;;;;;4993916;28;20044;-79
2024/03/14 14:44:17;;;;;;;3.22;1.80;;;18.20;68.00;;;;;;5031315;28;20045;-77
2024/03/14 14:47:04;;;;;;;3.80;1.88;;;18.20;68.00;;;;;;5030237;28;20056;-77
2024/03/14 14:49:49;;;;;;;5.07;2.20;;;18.20;68.00;;;;;;5000997;28;20099;-78
2024/03/14 14:52:35;;;;;;;4.88;1.98;;;18.30;68.10;;;;;;5029559;28;20140;-78
2024/03/14 14:55:22;;;;;;;3.35;1.90;;;18.30;68.10;;;;;;5028185;28;20072;-81
2024/03/14 14:58:07;;;;;;;3.75;1.67;;;18.30;68.00;;;;;;5013388;28;20247;-80
2024/03/14 15:00:52;;;;;;;2.75;1.88;;;18.30;67.90;;;;;;5007409;28;20099;-79
2024/03/14 15:03:37;;;;;;;2.42;1.45;;;18.30;68.00;;;;;;5004704;28;20523;-80
2024/03/14 15:06:21;;;;;;;6.28;2.28;;;18.20;67.70;;;;;;5012723;28;20103;-79
2024/03/14 15:09:09;;;;;;;3.88;1.73;;;18.20;67.80;;;;;;5026807;28;20275;-80
2024/03/14 15:11:55;;;;;;;2.85;1.70;;;18.20;67.80;;;;;;5027582;28;20121;-81
2024/03/14 15:14:39;;;;;;;4.35;1.90;;;18.10;67.70;;;;;;5010615;28;20137;-81
2024/03/14 15:17:24;;;;;;;3.90;1.70;;;18.10;67.80;;;;;;5012267;28;20100;-81
2024/03/14 15:20:31;;;;;;;3.70;2.85;;;18.00;67.60;;;;;;5012613;28;20091;-80
2024/03/14 15:23:14;;;;;;;2.15;1.50;;;18.00;67.70;;;;;;5027393;28;20036;-79
2024/03/14 15:26:04;;;;;;;3.78;2.08;;;18.00;67.80;;;;;;5028490;28;20052;-81
2024/03/14 15:28:48;;;;;;;5.60;1.58;;;18.00;67.80;;;;;;5028967;28;20048;-81
2024/03/14 15:31:34;;;;;;;4.93;2.38;;;18.00;67.90;;;;;;5014195;28;20060;-80
2024/03/14 15:34:18;;;;;;;6.03;1.60;;;17.90;67.70;;;;;;5016400;28;20083;-80
2024/03/14 15:37:05;;;;;;;3.22;1.80;;;17.90;67.80;;;;;;5013592;28;20052;-84
2024/03/14 15:39:50;;;;;;;3.55;1.52;;;17.90;67.80;;;;;;5027832;28;20091;-80
2024/03/14 15:42:35;;;;;;;3.85;1.52;;;17.80;67.70;;;;;;5027584;28;20104;-80
2024/03/14 15:45:21;;;;;;;5.25;2.38;;;17.70;67.60;;;;;;5027848;28;20144;-80
2024/03/14 15:48:07;;;;;;;2.40;1.75;;;17.70;67.70;;;;;;5027219;28;20060;-78
2024/03/14 15:50:52;;;;;;;3.92;1.60;;;17.70;67.80;;;;;;5027148;28;20048;-80
2024/03/14 15:53:37;;;;;;;2.67;1.20;;;17.70;67.90;;;;;;5008079;28;20092;-79
2024/03/14 15:56:22;;;;;;;2.25;1.63;;;17.60;67.80;;;;;;5026396;28;20043;-79
2024/03/14 15:59:07;;;;;;;1.77;1.08;;;17.60;67.80;;;;;;5026267;28;20119;-79
2024/03/14 16:01:53;;;;;;;4.30;2.03;;;17.60;67.80;;;;;;5026484;28;20044;-80
2024/03/14 16:04:38;;;;;;;3.08;1.92;;;17.60;67.90;;;;;;5011612;28;20052;-79
2024/03/14 16:07:23;;;;;;;4.15;1.50;;;17.60;67.90;;;;;;5026629;28;20049;-77
2024/03/14 16:10:09;;;;;;;2.40;1.40;;;17.60;67.90;;;;;;5025929;28;20128;-78
2024/03/14 16:12:53;;;;;;;2.10;1.23;;;17.60;67.90;;;;;;5026901;28;20064;-79
2024/03/14 16:15:38;;;;;;;3.83;1.55;;;17.50;67.70;;;;;;5025543;28;20052;-79
2024/03/14 16:18:23;;;;;;;3.20;1.52;;;17.50;67.70;;;;;;5026503;28;20177;-79
2024/03/14 16:21:07;;;;;;;2.10;1.35;;;17.50;67.80;;;;;;5011770;28;20067;-79
2024/03/14 16:23:52;;;;;;;2.40;1.20;;;17.50;67.80;;;;;;5011086;28;20088;-80
2024/03/14 16:26:38;;;;;;;1.92;1.10;;;17.40;67.70;;;;;;5026594;28;20088;-78
2024/03/14 16:29:22;;;;;;;2.42;1.30;;;17.40;67.80;;;;;;5010835;28;20500;-80
2024/03/14 16:32:07;;;;;;;2.10;1.27;;;17.30;67.70;;;;;;5007958;28;20066;-78
2024/03/14 16:34:52;;;;;;;2.33;1.23;;;17.30;67.80;;;;;;5019034;28;20064;-78
2024/03/14 16:37:36;;;;;;;2.67;1.25;;;17.30;67.90;;;;;;5024394;28;20048;-78
2024/03/14 16:40:22;;;;;;;1.70;0.90;;;17.30;68.00;;;;;;5012445;28;20094;-78
2024/03/14 16:43:11;;;;;;;3.17;1.73;;;17.20;67.90;;;;;;5015510;28;20064;-78
2024/03/14 16:45:56;;;;;;;2.00;1.00;;;17.10;67.80;;;;;;5030311;28;20041;-79
2024/03/14 16:48:41;;;;;;;1.88;1.20;;;17.10;68.00;;;;;;5033031;28;20043;-76
2024/03/14 16:51:25;;;;;;;2.03;1.10;;;17.10;68.10;;;;;;5026034;28;20125;-79
2024/03/14 16:54:15;;;;;;;1.38;1.15;;;17.00;68.00;;;;;;5035909;28;20037;-80